Latest Weather Observations for Warra

IDT60801

Issued at 2:02 pm EST Saturday 4 July 2015 (issued every 30 minutes, with the page automatically refreshed every 10 minutes)

About weather observations | Map of weather stations | Latest weather observations for TAS | Other Formats
Station Details ID: 097024 Name: WARRA Lat: -43.06 Lon: 146.70 Height: 495.0 m
Data from the previous 72 hours. | See also: Recent months at Warra
Date/Time
EST
Temp
°C
App
Temp
°C
Dew
Point
Rel
Hum
%
Delta-T
°C
Wind Press
QNH
hPa
Press
MSL
hPa
Rain
since 9 am
mm
Dir
 
Spd
km/h
Gust
km/h
Spd
kts
Gust
kts
04/02:00pm 6.3 0.0 1.8 73 1.9 W 24 44 13 24 - - 0.2
04/01:30pm 6.7 -0.3 1.8 71 2.1 W 28 48 15 26 - - 0.2
04/01:12pm 7.0 0.0 1.7 69 2.2 W 28 52 15 28 - - 0.2
04/01:00pm 7.4 0.8 2.1 69 2.2 W 26 48 14 26 - - 0.2
04/12:41pm 7.3 0.2 1.6 67 2.4 W 28 67 15 36 - - 0.2
04/12:30pm 7.4 1.2 1.9 68 2.3 W 24 50 13 27 - - 0.2
04/12:15pm 7.0 0.0 1.7 69 2.2 W 28 46 15 25 - - 0.2
04/12:00pm 7.4 1.7 2.7 72 2.0 W 22 46 12 25 - - 0.2
04/11:30am 7.1 0.2 2.4 72 2.0 W 28 48 15 26 - - 0.2
04/11:00am 6.6 -0.4 2.1 73 1.9 WNW 28 59 15 32 - - 0.2
04/10:30am 6.7 0.0 3.9 82 1.2 W 28 50 15 27 - - 0.2
04/10:21am 6.3 -0.4 3.8 84 1.1 WNW 28 48 15 26 - - 0.2
04/10:00am 7.2 1.4 4.5 83 1.2 WNW 24 41 13 22 - - 0.0
04/09:49am 6.7 0.5 4.5 86 1.0 WNW 26 54 14 29 - - 0.0
04/09:30am 6.5 0.8 5.1 91 0.6 W 24 41 13 22 - - 0.0
04/09:00am 7.1 0.5 4.2 82 1.3 W 28 57 15 31 - - 4.6
04/08:30am 6.7 0.5 6.1 96 0.3 W 28 54 15 29 - - 4.6
04/08:20am 6.9 0.8 6.6 98 0.1 W 28 57 15 31 - - 4.6
04/08:00am 7.0 1.3 6.7 98 0.1 WNW 26 50 14 27 - - 4.6
04/07:30am 7.3 2.0 6.7 96 0.3 W 24 43 13 23 - - 4.2
04/07:00am 7.4 2.5 7.1 98 0.1 W 22 63 12 34 - - 4.0
04/06:34am 7.4 2.2 7.3 99 0.0 W 24 52 13 28 - - 4.0
04/06:30am 7.4 2.2 7.4 100 0.0 WNW 24 43 13 23 - - 4.0
04/06:00am 7.8 1.6 7.7 99 0.0 W 30 54 16 29 - - 3.8
04/05:30am 7.8 1.2 7.7 99 0.0 W 32 70 17 38 - - 3.8
04/05:00am 7.9 1.7 7.8 99 0.0 W 30 54 16 29 - - 3.8
04/04:30am 7.9 2.1 7.9 100 0.0 W 28 54 15 29 - - 3.6
04/04:16am 8.0 3.3 7.9 99 0.0 W 22 57 12 31 - - 3.4
04/04:00am 8.0 4.3 7.9 99 0.0 W 17 32 9 17 - - 3.0
04/03:30am 8.0 2.8 7.4 96 0.3 WNW 24 43 13 23 - - 1.8
04/03:00am 8.3 0.1 6.6 89 0.8 WNW 39 70 21 38 - - 1.6
04/02:53am 8.3 0.5 6.6 89 0.8 WNW 37 70 20 38 - - 1.6
04/02:30am 7.7 1.6 6.6 93 0.5 WNW 28 52 15 28 - - 1.6
04/02:29am 7.6 1.5 6.7 94 0.4 WNW 28 52 15 28 - - 1.6
04/02:00am 7.1 1.7 6.2 94 0.4 WNW 24 54 13 29 - - 1.6
04/01:44am 6.8 0.6 6.2 96 0.3 WNW 28 48 15 26 - - 1.6
04/01:30am 6.6 1.2 6.3 98 0.1 WNW 24 41 13 22 - - 1.6
04/01:00am 6.6 -0.4 6.2 97 0.2 WNW 32 59 17 32 - - 1.4
04/12:30am 6.3 -0.8 5.7 96 0.3 WNW 32 57 17 31 - - 1.2
04/12:00am 6.4 -1.4 5.0 91 0.6 WNW 35 59 19 32 - - 0.6
 
Date/Time
EST
Temp
°C
App
Temp
°C
Dew
Point
Rel
Hum
%
Delta-T
°C
Wind Press
QNH
hPa
Press
MSL
hPa
Rain
since 9 am
mm
Dir
 
Spd
km/h
Gust
km/h
Spd
kts
Gust
kts
03/11:30pm 6.0 -1.3 5.4 96 0.3 WNW 33 52 18 28 - - 0.6
03/11:00pm 5.7 -2.0 5.4 98 0.1 WNW 35 69 19 37 - - 0.6
03/10:30pm 5.4 -1.4 5.3 99 0.0 WNW 30 65 16 35 - - 0.6
03/10:10pm 5.2 -2.2 5.1 99 0.0 WNW 33 65 18 35 - - 0.6
03/10:00pm 5.2 -2.2 5.1 99 0.0 WNW 33 50 18 27 - - 0.6
03/09:35pm 5.0 -1.5 4.7 98 0.1 WNW 28 48 15 26 - - 0.4
03/09:30pm 4.9 -0.9 4.6 98 0.1 WNW 24 35 13 19 - - 0.4
03/09:00pm 5.2 -2.4 4.0 92 0.5 WNW 33 69 18 37 - - 0.2
03/08:53pm 5.3 -1.7 4.0 91 0.6 WNW 30 69 16 37 - - 0.2
03/08:44pm 5.1 -1.6 3.9 92 0.5 WNW 28 46 15 25 - - 0.2
03/08:30pm 4.9 -0.6 4.0 94 0.4 WNW 22 41 12 22 - - 0.0
03/08:00pm 4.7 -0.4 4.1 96 0.3 WNW 20 35 11 19 - - 0.0
03/07:30pm 3.6 0.9 3.5 99 0.0 NE 7 17 4 9 - - 0.0
03/07:00pm 4.2 0.7 3.3 94 0.4 NNW 11 28 6 15 - - 0.0
03/06:30pm 3.9 0.4 3.3 96 0.3 N 11 20 6 11 - - 0.0
03/06:00pm 4.3 0.3 2.8 90 0.6 NW 13 33 7 18 - - 0.0
03/05:30pm 4.7 -0.1 2.6 86 0.9 NW 17 28 9 15 - - 0.0
03/05:00pm 4.8 -1.0 2.5 85 1.0 NW 22 35 12 19 - - 0.0
03/04:30pm 4.9 0.6 3.4 90 0.6 NW 15 24 8 13 - - 0.0
03/04:00pm 5.2 1.4 4.0 92 0.5 NW 13 19 7 10 - - 0.0
03/03:30pm 5.7 2.3 4.0 89 0.7 NNW 11 24 6 13 - - 0.0
03/03:00pm 5.3 1.6 4.3 93 0.4 NW 13 20 7 11 - - 0.0
03/02:30pm 5.5 1.4 4.2 91 0.6 NW 15 30 8 16 - - 0.0
03/02:00pm 5.9 1.9 3.1 82 1.2 NW 13 24 7 13 - - 0.0
03/01:30pm 6.8 3.5 2.7 75 1.8 W 9 24 5 13 - - 0.0
03/01:00pm 7.4 3.1 3.1 74 1.9 WNW 15 26 8 14 - - 0.0
03/12:30pm 7.0 2.7 3.3 77 1.6 WNW 15 22 8 12 - - 0.0
03/12:00pm 7.0 2.8 3.6 79 1.5 WNW 15 28 8 15 - - 0.0
03/11:30am 6.6 2.7 3.6 81 1.3 NW 13 28 7 15 - - 0.0
03/11:00am 5.6 2.1 3.4 86 0.9 WNW 11 17 6 9 - - 0.0
03/10:30am 4.7 0.7 2.9 88 0.8 WNW 13 20 7 11 - - 0.0
03/10:00am 4.2 0.6 3.0 92 0.5 WNW 11 17 6 9 - - 0.0
03/09:30am 4.1 0.1 2.9 92 0.5 WNW 13 20 7 11 - - 0.0
03/09:00am 3.6 -1.5 3.0 96 0.3 WNW 19 28 10 15 - - 14.2
03/08:30am 3.2 -1.5 3.1 99 0.0 WNW 17 28 9 15 - - 14.2
03/08:00am 2.7 -2.1 2.6 99 0.0 WNW 17 26 9 14 - - 14.2
03/07:30am 2.6 -2.6 2.5 99 0.0 WNW 19 26 10 14 - - 14.2
03/07:00am 2.7 -2.1 2.6 99 0.0 WNW 17 26 9 14 - - 14.2
03/06:30am 2.6 -2.6 2.3 98 0.1 WNW 19 30 10 16 - - 14.2
03/06:00am 2.6 -2.3 2.0 96 0.2 WNW 17 26 9 14 - - 14.2
03/05:30am 2.8 -3.4 1.9 94 0.4 WNW 24 41 13 22 - - 14.0
03/05:00am 2.7 -3.6 1.8 94 0.4 WNW 24 43 13 23 - - 14.0
03/04:30am 2.5 -3.0 1.9 96 0.2 W 20 37 11 20 - - 14.0
03/04:00am 2.2 -1.5 2.1 99 0.0 WNW 11 22 6 12 - - 14.0
03/03:30am 2.0 -1.0 1.9 99 0.0 WNW 7 17 4 9 - - 14.0
03/03:00am 2.1 -2.4 2.0 99 0.0 WNW 15 35 8 19 - - 14.0
03/02:30am 2.0 -1.4 1.6 97 0.2 N 9 19 5 10 - - 14.0
03/02:00am 2.3 -1.9 1.7 96 0.2 WNW 13 30 7 16 - - 14.0
03/01:30am 2.1 -2.1 1.7 97 0.2 WNW 13 30 7 16 - - 14.0
03/01:00am 2.0 -1.8 1.9 99 0.0 W 11 30 6 16 - - 14.0
03/12:30am 1.9 -1.9 1.6 98 0.1 W 11 20 6 11 - - 14.0
03/12:00am 1.8 -1.6 1.7 99 0.0 W 9 20 5 11 - - 14.0
 
Date/Time
EST
Temp
°C
App
Temp
°C
Dew
Point
Rel
Hum
%
Delta-T
°C
Wind Press
QNH
hPa
Press
MSL
hPa
Rain
since 9 am
mm
Dir
 
Spd
km/h
Gust
km/h
Spd
kts
Gust
kts
02/11:30pm 1.9 -1.5 1.8 99 0.0 W 9 20 5 11 - - 13.8
02/11:00pm 1.8 -3.1 1.7 99 0.0 W 17 35 9 19 - - 13.8
02/10:30pm 1.7 -3.6 1.6 99 0.0 W 19 35 10 19 - - 13.8
02/10:00pm 1.7 -3.3 1.6 99 0.0 W 17 35 9 19 - - 13.6
02/09:30pm 1.6 -3.8 1.5 99 0.0 W 19 32 10 17 - - 13.6
02/09:00pm 1.2 -3.1 1.1 99 0.0 W 13 22 7 12 - - 13.6
02/08:30pm 1.3 -3.7 1.2 99 0.0 W 17 28 9 15 - - 13.6
02/08:00pm 1.4 -4.0 1.3 99 0.0 WSW 19 35 10 19 - - 13.6
02/07:30pm 1.0 -3.3 0.9 99 0.0 W 13 26 7 14 - - 13.6
02/07:00pm 1.3 -2.6 1.2 99 0.0 WSW 11 26 6 14 - - 13.2
02/06:30pm 1.3 -3.4 1.2 99 0.0 WSW 15 32 8 17 - - 13.2
02/06:00pm 1.0 -3.3 0.9 99 0.0 WNW 13 26 7 14 - - 13.0
02/05:30pm 1.4 -2.9 1.3 99 0.0 WSW 13 35 7 19 - - 13.0
02/05:00pm 1.3 -2.2 1.2 99 0.0 W 9 22 5 12 - - 13.0
02/04:30pm 1.3 -3.0 1.2 99 0.0 WSW 13 28 7 15 - - 13.0
02/04:00pm 1.7 -2.9 1.6 99 0.0 W 15 28 8 15 - - 12.0
02/03:30pm 1.8 -3.1 1.7 99 0.0 WSW 17 32 9 17 - - 11.8
02/03:00pm 2.4 -3.0 2.3 99 0.0 W 20 39 11 21 - - 11.2
02/02:30pm 2.4 -2.5 2.3 99 0.0 WSW 17 28 9 15 - - 10.0
02/02:00pm 1.8 -3.5 1.7 99 0.0 WSW 19 32 10 17 - - 10.0
02/01:30pm 2.4 -2.9 2.1 98 0.1 W 19 30 10 16 - - 8.8
02/01:00pm 3.3 -2.1 2.7 96 0.2 W 20 35 11 19 - - 8.2
02/12:38pm 2.6 -4.5 1.6 93 0.4 WSW 28 52 15 28 - - 8.2
02/12:30pm 3.2 -2.6 2.2 93 0.4 WSW 22 44 12 24 - - 8.0
02/12:00pm 2.4 -2.5 2.3 99 0.0 WSW 17 41 9 22 - - 8.0
02/11:30am 1.9 -3.6 1.9 100 0.0 WSW 20 39 11 21 - - 7.4
02/11:00am 0.8 -4.3 0.7 99 0.0 WSW 17 32 9 17 - - 4.6
02/10:30am 2.2 -3.3 2.1 99 0.0 WSW 20 41 11 22 - - 3.0
02/10:00am 1.7 -4.6 1.3 97 0.2 WSW 24 43 13 23 - - 2.2
02/09:30am 2.3 -3.3 1.1 92 0.5 WSW 20 37 11 20 - - 1.0
02/09:00am 2.3 -2.8 1.0 91 0.5 WSW 17 33 9 18 - - 27.8
02/08:30am 2.0 -3.4 1.1 94 0.4 W 19 32 10 17 - - 27.0
02/08:00am 1.9 -3.2 1.0 94 0.4 W 17 32 9 17 - - 26.4
02/07:30am 1.1 -4.0 0.7 97 0.2 W 17 28 9 15 - - 26.2
02/07:00am 1.4 -3.0 0.2 92 0.5 WSW 13 30 7 16 - - 26.0
02/06:30am 2.4 -3.0 1.1 91 0.5 W 19 35 10 19 - - 25.8
02/06:00am 1.6 -3.5 0.9 95 0.3 W 17 30 9 16 - - 25.4
02/05:30am 3.0 -3.5 0.2 82 1.1 W 24 50 13 27 - - 25.2
02/05:20am 2.7 -4.5 0.4 85 0.9 WNW 28 46 15 25 - - 25.2
02/05:00am 2.6 -3.5 0.5 86 0.8 WNW 22 52 12 28 - - 25.2
02/04:30am 2.5 -4.2 1.2 91 0.5 WNW 26 46 14 25 - - 25.0
02/04:00am 2.5 -3.5 1.0 90 0.6 WNW 22 35 12 19 - - 24.8
02/03:30am 2.3 -4.8 1.1 92 0.5 W 28 48 15 26 - - 24.8
02/03:12am 2.5 -4.6 1.3 92 0.5 W 28 57 15 31 - - 24.8
02/03:00am 2.5 -3.8 1.3 92 0.5 WNW 24 48 13 26 - - 24.8
02/02:56am 2.4 -4.0 1.2 92 0.5 WNW 24 48 13 26 - - 24.8
02/02:30am 2.1 -3.3 1.4 95 0.3 W 19 44 10 24 - - 24.6
02/02:00am 1.9 -3.1 1.5 97 0.2 W 17 35 9 19 - - 24.2
02/01:34am 2.7 -4.4 1.5 92 0.5 W 28 50 15 27 - - 23.4
02/01:30am 2.4 -3.5 1.5 94 0.4 WNW 22 43 12 23 - - 23.4
02/01:00am 2.5 -3.3 2.2 98 0.1 W 22 44 12 24 - - 22.4
02/12:30am 2.2 -2.8 1.6 96 0.2 W 17 35 9 19 - - 21.6
02/12:00am 1.9 -4.1 1.2 95 0.3 W 22 41 12 22 - - 20.8
 
Date/Time
EST
Temp
°C
App
Temp
°C
Dew
Point
Rel
Hum
%
Delta-T
°C
Wind Press
QNH
hPa
Press
MSL
hPa
Rain
since 9 am
mm
Dir
 
Spd
km/h
Gust
km/h
Spd
kts
Gust
kts
01/11:30pm 3.7 -4.2 2.2 90 0.6 WNW 33 54 18 29 - - 18.2
01/11:12pm 3.4 -3.6 2.1 91 0.5 WNW 28 54 15 29 - - 18.2
01/11:00pm 3.6 -1.8 2.6 93 0.4 WNW 20 39 11 21 - - 18.0
01/10:30pm 4.4 -2.5 2.8 89 0.7 WNW 28 52 15 28 - - 16.6
01/10:29pm 4.4 -2.5 2.8 89 0.7 WNW 28 52 15 28 - - 16.6
01/10:00pm 4.2 -0.7 4.1 99 0.0 WNW 19 41 10 22 - - 16.4
01/09:30pm 3.5 -1.2 3.4 99 0.0 W 17 39 9 21 - - 14.6
01/09:00pm 4.2 -2.6 2.9 91 0.5 NW 28 50 15 27 - - 13.0
01/08:33pm 4.0 -2.8 3.0 93 0.4 NW 28 50 15 27 - - 13.0
01/08:30pm 3.8 -2.2 3.1 95 0.3 NW 24 50 13 27 - - 13.0
01/08:00pm 3.3 -2.7 3.2 99 0.0 NW 24 50 13 27 - - 13.0
01/07:30pm 2.2 -3.7 1.9 98 0.1 W 22 39 12 21 - - 11.2
01/07:00pm 3.8 -4.1 2.5 91 0.5 W 33 57 18 31 - - 7.2
01/06:50pm 4.6 -3.2 2.8 88 0.8 W 33 61 18 33 - - 5.4
01/06:45pm 7.2 0.1 5.7 90 0.7 WNW 32 54 17 29 - - 3.4
01/06:30pm 7.9 -0.6 5.0 82 1.3 NW 39 78 21 42 - - 1.6
01/06:00pm 8.5 -0.2 4.1 74 2.0 NW 39 67 21 36 - - 1.6
01/05:30pm 8.5 0.1 3.6 71 2.2 NW 37 78 20 42 - - 1.6
01/05:00pm 8.2 -0.9 3.9 74 1.9 NW 41 67 22 36 - - 1.6
01/04:30pm 7.7 -0.1 4.7 81 1.4 NW 35 63 19 34 - - 1.6
01/04:00pm 7.8 -1.6 4.4 79 1.5 WNW 43 65 23 35 - - 1.6
01/03:30pm 7.3 0.9 5.4 88 0.9 WNW 28 54 15 29 - - 1.4
01/03:00pm 7.8 0.7 5.3 84 1.1 WNW 32 57 17 31 - - 1.2
01/02:54pm 7.7 1.0 5.7 87 0.9 NW 30 57 16 31 - - 1.2
01/02:30pm 7.5 3.0 6.1 91 0.7 NW 19 28 10 15 - - 1.2

Other Formats:

Comma delimited format used in spreadsheet applications
http://www.bom.gov.au/fwo/IDT60801/IDT60801.95962.axf

JavaScript Object Notation format (JSON) in row-major order
http://www.bom.gov.au/fwo/IDT60801/IDT60801.95962.json